< < Back
Terminal Aerodrome Forecast


Current Version              Previous Versions:   1  2  3  4  5  6  7  8  9  

Terminal Aerodrome Forecast

436
FTUS42 KCHS 312031 AAA
TAFCHS
TAF AMD
KCHS 312031Z 3121/0118 21012G18KT P6SM FEW050
     FM312300 21010KT P6SM FEW050
     FM010700 29006KT P6SM SCT050
     FM011400 04010KT P6SM FEW050=

Latest METAR

802
SAUS80 KWBC 011300 RRI
MTRCHS
METAR KCHS 011256Z 30008KT 10SM SCT090 BKN120 BKN250 19/12 A3000 RMK AO2
SLP157 T01940117


USA.gov is the U.S. government's official web portal to all federal, state and local government web resources and services.